Time;durP1;ratioP1;P1;durP2;ratioP2;P2;SDS_P1;SDS_P2;PMS_P1;PMS_P2;Temp;Humidity;BMP_temperature;BMP_pressure;BME280_temperature;BME280_humidity;BME280_pressure;Samples;Min_cycle;Max_cycle;Signal;HPM_P1;HPM_P2
2021/09/05 00:01:24;;;;;;;11.10;9.97;;;;;;;;;;5087433;28;20211;-61
2021/09/05 00:03:52;;;;;;;10.47;9.37;;;;;;;;;;5074370;28;20226;-60
2021/09/05 00:06:18;;;;;;;10.50;9.43;;;;;;;;;;5072358;28;20176;-60
2021/09/05 00:08:45;;;;;;;10.33;9.10;;;;;;;;;;5071146;28;20216;-61
2021/09/05 00:11:11;;;;;;;12.20;10.10;;;;;;;;;;5082906;28;20185;-61
2021/09/05 00:13:37;;;;;;;10.37;9.10;;;;;;;;;;5079154;28;20267;-61
2021/09/05 00:16:03;;;;;;;11.20;9.40;;;;;;;;;;5087119;28;20606;-61
2021/09/05 00:18:30;;;;;;;10.67;9.57;;;;;;;;;;5089794;28;20643;-60
2021/09/05 00:20:56;;;;;;;10.57;8.83;;;;;;;;;;5086556;28;20179;-61
2021/09/05 00:23:22;;;;;;;11.67;10.20;;;;;;;;;;5086463;28;20173;-61
2021/09/05 00:25:48;;;;;;;11.03;9.93;;;;;;;;;;5084458;28;20188;-61
2021/09/05 00:28:14;;;;;;;14.10;10.57;;;;;;;;;;5082873;28;20956;-61
2021/09/05 00:30:40;;;;;;;12.50;9.80;;;;;;;;;;5090516;28;20176;-60
2021/09/05 00:33:07;;;;;;;12.03;9.70;;;;;;;;;;5071367;28;20259;-61
2021/09/05 00:35:34;;;;;;;11.73;10.52;;;;;;;;;;5081768;28;20446;-61
2021/09/05 00:38:00;;;;;;;11.90;9.40;;;;;;;;;;5089865;28;20194;-60
2021/09/05 00:40:26;;;;;;;11.67;10.27;;;;;;;;;;5080894;28;20200;-60
2021/09/05 00:42:52;;;;;;;11.27;10.10;;;;;;;;;;5071722;28;20200;-62
2021/09/05 00:45:18;;;;;;;10.13;9.03;;;;;;;;;;5080193;28;20179;-61
2021/09/05 00:47:45;;;;;;;10.33;9.30;;;;;;;;;;5089307;28;20653;-62
2021/09/05 00:50:13;;;;;;;10.70;9.53;;;;;;;;;;5083885;28;20623;-61
2021/09/05 00:52:40;;;;;;;10.70;9.70;;;;;;;;;;5077452;28;20188;-61
2021/09/05 00:55:06;;;;;;;14.17;9.73;;;;;;;;;;5074804;28;20646;-61
2021/09/05 00:57:33;;;;;;;10.70;9.60;;;;;;;;;;5080263;28;20251;-63
2021/09/05 00:59:59;;;;;;;11.20;10.00;;;;;;;;;;5077641;28;20203;-61
2021/09/05 01:02:25;;;;;;;11.00;9.90;;;;;;;;;;5078125;28;20204;-61
2021/09/05 01:04:51;;;;;;;11.30;10.10;;;;;;;;;;5076374;28;20564;-61
2021/09/05 01:07:17;;;;;;;12.37;9.90;;;;;;;;;;5090126;28;20164;-61
2021/09/05 01:09:44;;;;;;;13.50;9.73;;;;;;;;;;5087178;28;20179;-60
2021/09/05 01:12:11;;;;;;;10.43;9.33;;;;;;;;;;5073268;28;20607;-61
2021/09/05 01:14:37;;;;;;;11.33;9.97;;;;;;;;;;5072723;28;20187;-61
2021/09/05 01:17:03;;;;;;;11.00;9.73;;;;;;;;;;5077567;28;20699;-61
2021/09/05 01:19:29;;;;;;;11.40;9.63;;;;;;;;;;5073910;28;20270;-61
2021/09/05 01:21:55;;;;;;;10.00;9.10;;;;;;;;;;5081255;28;20185;-61
2021/09/05 01:24:22;;;;;;;11.07;9.93;;;;;;;;;;5073967;28;20199;-61
2021/09/05 01:26:50;;;;;;;10.47;9.30;;;;;;;;;;5069608;28;20196;-62
2021/09/05 01:29:17;;;;;;;10.80;9.70;;;;;;;;;;5085586;28;20182;-60
2021/09/05 01:31:48;;;;;;;10.07;9.13;;;;;;;;;;5085619;28;20188;-60
2021/09/05 01:34:15;;;;;;;11.27;10.07;;;;;;;;;;5070936;28;20192;-61
2021/09/05 01:36:41;;;;;;;11.20;10.10;;;;;;;;;;5080711;28;20177;-61
2021/09/05 01:39:08;;;;;;;11.30;9.90;;;;;;;;;;5069228;28;20663;-61
2021/09/05 01:41:35;;;;;;;11.27;10.17;;;;;;;;;;5077112;28;20268;-61
2021/09/05 01:44:16;;;;;;;10.70;9.10;;;;;;;;;;5089644;28;20511;-61
2021/09/05 01:46:45;;;;;;;11.97;10.27;;;;;;;;;;5071162;28;20160;-61
2021/09/05 01:49:11;;;;;;;11.13;10.03;;;;;;;;;;5073587;28;20269;-63
2021/09/05 01:51:37;;;;;;;12.13;9.53;;;;;;;;;;5078555;28;20184;-61
2021/09/05 01:54:03;;;;;;;11.07;9.93;;;;;;;;;;5086785;28;20297;-61
2021/09/05 01:56:33;;;;;;;10.70;9.60;;;;;;;;;;5082525;28;20195;-61
2021/09/05 01:59:00;;;;;;;10.43;9.33;;;;;;;;;;5080069;28;20236;-61
2021/09/05 02:01:27;;;;;;;11.47;10.37;;;;;;;;;;5074316;28;20251;-62
2021/09/05 02:03:53;;;;;;;11.20;9.40;;;;;;;;;;5083956;28;20179;-60
2021/09/05 02:06:20;;;;;;;11.53;10.00;;;;;;;;;;5104181;28;20259;-61
2021/09/05 02:08:46;;;;;;;11.43;9.63;;;;;;;;;;5074853;28;20183;-61
2021/09/05 02:11:12;;;;;;;11.27;9.30;;;;;;;;;;5075660;28;20241;-61
2021/09/05 02:13:38;;;;;;;11.37;9.77;;;;;;;;;;5079540;28;20525;-61
2021/09/05 02:16:05;;;;;;;12.20;10.13;;;;;;;;;;5085124;28;20308;-61
2021/09/05 02:18:31;;;;;;;11.37;9.63;;;;;;;;;;5081975;28;20196;-61
2021/09/05 02:20:57;;;;;;;11.97;9.87;;;;;;;;;;5083301;28;20589;-61
2021/09/05 02:23:23;;;;;;;10.43;9.37;;;;;;;;;;5080178;28;20244;-60
2021/09/05 02:25:49;;;;;;;12.10;10.03;;;;;;;;;;5087594;28;20183;-64
2021/09/05 02:28:16;;;;;;;11.57;10.37;;;;;;;;;;5084353;28;20232;-62
2021/09/05 02:30:42;;;;;;;11.43;9.47;;;;;;;;;;5076392;28;20168;-60
2021/09/05 02:33:11;;;;;;;11.07;9.73;;;;;;;;;;5080407;28;20268;-61
2021/09/05 02:35:40;;;;;;;11.30;10.10;;;;;;;;;;5086741;28;20261;-61
2021/09/05 02:38:06;;;;;;;12.00;10.10;;;;;;;;;;5078861;28;20202;-61
2021/09/05 02:40:32;;;;;;;12.73;10.87;;;;;;;;;;5070134;28;20201;-61
2021/09/05 02:42:58;;;;;;;11.30;9.57;;;;;;;;;;5083271;28;20183;-61
2021/09/05 02:45:25;;;;;;;12.07;10.10;;;;;;;;;;5082953;28;20181;-63
2021/09/05 02:47:51;;;;;;;12.53;10.50;;;;;;;;;;5075613;28;20258;-61
2021/09/05 02:50:17;;;;;;;12.50;10.10;;;;;;;;;;5078076;28;20799;-61
2021/09/05 02:52:43;;;;;;;14.50;10.80;;;;;;;;;;5088579;28;20182;-61
2021/09/05 02:55:12;;;;;;;14.47;10.23;;;;;;;;;;5081763;28;20632;-62
2021/09/05 02:57:38;;;;;;;11.60;10.47;;;;;;;;;;5068615;28;20228;-61
2021/09/05 03:00:05;;;;;;;12.07;10.07;;;;;;;;;;5082942;28;20207;-62
2021/09/05 03:02:31;;;;;;;11.30;9.83;;;;;;;;;;5082703;28;20172;-61
2021/09/05 03:04:57;;;;;;;11.30;10.13;;;;;;;;;;5091618;28;20176;-62
2021/09/05 03:07:23;;;;;;;11.63;10.43;;;;;;;;;;5071810;28;20188;-61
2021/09/05 03:09:49;;;;;;;13.73;10.37;;;;;;;;;;5074738;28;20188;-61
2021/09/05 03:12:15;;;;;;;11.27;10.07;;;;;;;;;;5089763;28;20203;-63
2021/09/05 03:14:41;;;;;;;10.80;9.63;;;;;;;;;;5082873;28;20184;-62
2021/09/05 03:17:07;;;;;;;20.90;19.23;;;;;;;;;;5088707;28;20195;-62
2021/09/05 03:19:33;;;;;;;12.70;9.90;;;;;;;;;;5085362;28;20204;-61
2021/09/05 03:21:59;;;;;;;11.57;9.67;;;;;;;;;;5076725;28;20527;-61
2021/09/05 03:24:25;;;;;;;13.33;11.33;;;;;;;;;;5080615;28;20181;-63
2021/09/05 03:26:51;;;;;;;13.33;10.77;;;;;;;;;;5076507;28;20187;-61
2021/09/05 03:29:17;;;;;;;12.33;10.13;;;;;;;;;;5073269;28;20238;-61
2021/09/05 03:31:46;;;;;;;25.03;23.10;;;;;;;;;;5076115;28;20190;-61
2021/09/05 03:34:12;;;;;;;12.70;9.93;;;;;;;;;;5072625;28;20208;-62
2021/09/05 03:36:38;;;;;;;11.50;10.30;;;;;;;;;;5073946;28;20175;-61
2021/09/05 03:39:07;;;;;;;12.07;10.53;;;;;;;;;;5071655;28;20558;-61
2021/09/05 03:41:33;;;;;;;11.37;10.00;;;;;;;;;;5074209;28;20466;-61
2021/09/05 03:43:59;;;;;;;13.17;10.70;;;;;;;;;;5076601;28;20182;-61
2021/09/05 03:46:25;;;;;;;12.50;10.67;;;;;;;;;;5083668;28;20178;-61
2021/09/05 03:48:51;;;;;;;12.27;10.53;;;;;;;;;;5070626;28;20188;-61
2021/09/05 03:51:20;;;;;;;11.67;10.27;;;;;;;;;;5081428;28;20179;-61
2021/09/05 03:53:49;;;;;;;14.93;11.10;;;;;;;;;;5070189;28;20234;-63
2021/09/05 03:56:15;;;;;;;11.50;9.97;;;;;;;;;;5073392;28;20302;-61
2021/09/05 03:58:42;;;;;;;12.50;11.17;;;;;;;;;;5070336;28;20689;-61
2021/09/05 04:01:08;;;;;;;13.43;12.13;;;;;;;;;;5071828;28;20737;-61
2021/09/05 04:03:34;;;;;;;10.73;9.63;;;;;;;;;;5075486;28;20234;-61
2021/09/05 04:06:02;;;;;;;11.23;9.73;;;;;;;;;;5078444;28;20247;-61
2021/09/05 04:08:45;;;;;;;11.77;9.63;;;;;;;;;;5069769;28;20173;-60
2021/09/05 04:11:11;;;;;;;12.80;11.17;;;;;;;;;;5078843;28;20221;-61
2021/09/05 04:13:37;;;;;;;12.87;10.43;;;;;;;;;;5080171;28;20616;-61
2021/09/05 04:16:04;;;;;;;11.57;10.47;;;;;;;;;;5074947;28;20554;-61
2021/09/05 04:18:30;;;;;;;12.87;10.17;;;;;;;;;;5073277;28;20254;-61
2021/09/05 04:20:56;;;;;;;14.20;11.13;;;;;;;;;;5074323;28;20234;-63
2021/09/05 04:23:22;;;;;;;15.73;14.13;;;;;;;;;;5079612;28;20175;-61
2021/09/05 04:25:48;;;;;;;11.83;10.50;;;;;;;;;;5075171;28;20627;-61
2021/09/05 04:28:15;;;;;;;12.80;10.23;;;;;;;;;;5071036;28;20499;-62
2021/09/05 04:30:41;;;;;;;12.20;10.53;;;;;;;;;;5074956;28;20188;-61
2021/09/05 04:33:07;;;;;;;12.53;11.27;;;;;;;;;;5072261;28;21276;-61
2021/09/05 04:35:33;;;;;;;11.73;10.07;;;;;;;;;;5076573;28;20206;-61
2021/09/05 04:37:59;;;;;;;11.43;10.23;;;;;;;;;;5070517;28;20538;-61
2021/09/05 04:40:25;;;;;;;11.20;10.10;;;;;;;;;;5076552;28;20258;-61
2021/09/05 04:42:51;;;;;;;13.30;9.73;;;;;;;;;;5080905;28;20184;-60
2021/09/05 04:45:17;;;;;;;14.00;11.27;;;;;;;;;;5078068;28;20181;-62
2021/09/05 04:47:43;;;;;;;11.90;10.70;;;;;;;;;;5074265;28;20191;-60
2021/09/05 04:50:10;;;;;;;10.93;9.77;;;;;;;;;;5078769;28;20180;-61
2021/09/05 04:52:36;;;;;;;13.00;11.70;;;;;;;;;;5070140;28;20538;-61
2021/09/05 04:55:02;;;;;;;12.97;10.87;;;;;;;;;;5074555;28;20291;-62
2021/09/05 04:57:28;;;;;;;12.10;10.40;;;;;;;;;;5073227;28;20254;-61
2021/09/05 04:59:54;;;;;;;12.40;10.53;;;;;;;;;;5074107;28;20238;-61
2021/09/05 05:02:20;;;;;;;12.80;11.47;;;;;;;;;;5069790;28;20188;-60
2021/09/05 05:04:46;;;;;;;12.87;11.10;;;;;;;;;;5069381;28;20172;-61
2021/09/05 05:07:12;;;;;;;10.13;8.93;;;;;;;;;;5078715;28;20220;-61
2021/09/05 05:09:43;;;;;;;11.50;10.27;;;;;;;;;;5081342;28;20184;-61
2021/09/05 05:12:10;;;;;;;11.30;10.00;;;;;;;;;;5070090;28;20207;-60
2021/09/05 05:14:36;;;;;;;12.80;10.50;;;;;;;;;;5070246;28;20258;-61
2021/09/05 05:17:02;;;;;;;11.20;9.93;;;;;;;;;;5069219;28;20179;-63
2021/09/05 05:19:28;;;;;;;15.77;9.70;;;;;;;;;;5070688;28;20224;-61
2021/09/05 05:21:57;;;;;;;11.60;9.30;;;;;;;;;;5065302;28;20168;-61
2021/09/05 05:24:23;;;;;;;11.80;10.10;;;;;;;;;;5073930;28;20180;-61
2021/09/05 05:26:49;;;;;;;10.90;9.80;;;;;;;;;;5069043;28;20178;-61
2021/09/05 05:29:15;;;;;;;10.60;9.50;;;;;;;;;;5071720;28;20178;-61
2021/09/05 05:31:41;;;;;;;11.40;10.10;;;;;;;;;;5073587;28;20523;-61
2021/09/05 05:34:07;;;;;;;10.40;9.33;;;;;;;;;;5073547;28;20189;-61
2021/09/05 05:36:33;;;;;;;10.97;9.60;;;;;;;;;;5072608;28;20287;-62
2021/09/05 05:38:59;;;;;;;11.87;10.10;;;;;;;;;;5075102;28;20212;-61
2021/09/05 05:41:25;;;;;;;11.43;9.80;;;;;;;;;;5084450;28;20181;-60
2021/09/05 05:43:55;;;;;;;10.57;9.47;;;;;;;;;;5080168;28;20575;-61
2021/09/05 05:46:21;;;;;;;13.40;9.87;;;;;;;;;;5073065;28;20215;-61
2021/09/05 05:48:47;;;;;;;13.83;10.27;;;;;;;;;;5068389;28;20184;-61
2021/09/05 05:51:13;;;;;;;11.27;9.97;;;;;;;;;;5074265;28;20256;-63
2021/09/05 05:53:39;;;;;;;12.17;10.77;;;;;;;;;;5068137;28;20668;-61
2021/09/05 05:56:05;;;;;;;12.40;10.70;;;;;;;;;;5073890;28;20653;-61
2021/09/05 05:58:31;;;;;;;11.40;9.77;;;;;;;;;;5070900;28;20583;-61
2021/09/05 06:00:57;;;;;;;12.23;9.77;;;;;;;;;;5077894;28;20534;-61
2021/09/05 06:03:23;;;;;;;10.53;9.30;;;;;;;;;;5074263;28;20727;-61
2021/09/05 06:05:49;;;;;;;11.20;9.70;;;;;;;;;;5072944;28;20173;-61
2021/09/05 06:08:15;;;;;;;11.23;10.10;;;;;;;;;;5069965;28;20572;-61
2021/09/05 06:10:41;;;;;;;10.87;9.37;;;;;;;;;;5076811;28;20234;-61
2021/09/05 06:13:07;;;;;;;11.63;10.00;;;;;;;;;;5072070;28;20210;-61
2021/09/05 06:15:33;;;;;;;10.67;9.57;;;;;;;;;;5073311;28;20196;-62
2021/09/05 06:18:00;;;;;;;11.57;9.93;;;;;;;;;;5074895;28;20228;-61
2021/09/05 06:20:26;;;;;;;11.53;9.93;;;;;;;;;;5074956;28;20525;-61
2021/09/05 06:22:52;;;;;;;12.73;10.30;;;;;;;;;;5070417;28;20263;-62
2021/09/05 06:25:18;;;;;;;11.40;10.17;;;;;;;;;;5076427;28;20194;-60
2021/09/05 06:27:44;;;;;;;11.57;9.57;;;;;;;;;;5072407;28;20180;-61
2021/09/05 06:30:10;;;;;;;10.30;9.20;;;;;;;;;;5074371;28;20201;-60
2021/09/05 06:32:36;;;;;;;10.60;9.50;;;;;;;;;;5075322;28;20195;-61
2021/09/05 06:35:02;;;;;;;13.77;10.37;;;;;;;;;;5084282;28;20176;-61
2021/09/05 06:37:29;;;;;;;11.17;9.53;;;;;;;;;;5082744;28;20184;-64
2021/09/05 06:39:55;;;;;;;11.03;9.93;;;;;;;;;;5073901;28;20666;-61
2021/09/05 06:42:21;;;;;;;10.60;9.50;;;;;;;;;;5074623;28;20632;-61
2021/09/05 06:44:47;;;;;;;10.53;9.43;;;;;;;;;;5070798;28;20219;-61
2021/09/05 06:47:13;;;;;;;12.00;10.23;;;;;;;;;;5084474;28;20270;-61
2021/09/05 06:49:39;;;;;;;11.47;9.40;;;;;;;;;;5076935;28;20618;-63
2021/09/05 06:52:05;;;;;;;11.73;10.53;;;;;;;;;;5071389;28;20264;-62
2021/09/05 06:54:31;;;;;;;11.60;10.03;;;;;;;;;;5072011;28;20202;-61
2021/09/05 06:56:57;;;;;;;11.07;9.87;;;;;;;;;;5074859;28;20537;-61
2021/09/05 06:59:23;;;;;;;13.60;10.57;;;;;;;;;;5073434;28;20557;-61
2021/09/05 07:01:49;;;;;;;12.30;11.00;;;;;;;;;;5071559;28;20188;-63
2021/09/05 07:04:15;;;;;;;11.77;10.07;;;;;;;;;;5071379;28;20671;-61
2021/09/05 07:06:41;;;;;;;11.77;10.57;;;;;;;;;;5068718;28;20172;-61
2021/09/05 07:09:07;;;;;;;13.70;11.13;;;;;;;;;;5074786;28;20183;-61
2021/09/05 07:11:33;;;;;;;11.33;9.90;;;;;;;;;;5072868;28;20723;-61
2021/09/05 07:13:59;;;;;;;13.07;10.20;;;;;;;;;;5077702;28;20535;-63
2021/09/05 07:16:25;;;;;;;13.33;10.43;;;;;;;;;;5081174;28;20219;-61
2021/09/05 07:18:51;;;;;;;13.37;10.80;;;;;;;;;;5072430;28;20476;-61
2021/09/05 07:21:17;;;;;;;13.37;10.97;;;;;;;;;;5074939;28;20173;-61
2021/09/05 07:23:43;;;;;;;12.40;10.63;;;;;;;;;;5079382;28;20177;-61
2021/09/05 07:26:09;;;;;;;13.57;10.63;;;;;;;;;;5080003;28;20180;-64
2021/09/05 07:28:36;;;;;;;12.33;10.23;;;;;;;;;;5082143;28;20279;-61
2021/09/05 07:31:03;;;;;;;11.67;10.40;;;;;;;;;;5080533;28;20249;-61
2021/09/05 07:33:29;;;;;;;12.83;11.00;;;;;;;;;;5076440;28;20185;-61
2021/09/05 07:35:55;;;;;;;11.57;9.77;;;;;;;;;;5073725;28;20184;-61
2021/09/05 07:38:21;;;;;;;15.23;10.90;;;;;;;;;;5074603;28;20179;-61
2021/09/05 07:40:48;;;;;;;11.43;10.23;;;;;;;;;;5075723;28;20238;-60
2021/09/05 07:43:17;;;;;;;11.63;10.43;;;;;;;;;;5072582;28;20215;-61
2021/09/05 07:45:43;;;;;;;13.83;10.13;;;;;;;;;;5080279;28;20175;-61
2021/09/05 07:48:09;;;;;;;14.43;10.70;;;;;;;;;;5094636;28;20441;-61
2021/09/05 07:50:35;;;;;;;14.13;11.60;;;;;;;;;;5089991;28;20190;-62
2021/09/05 07:53:01;;;;;;;12.07;10.77;;;;;;;;;;5087521;28;20189;-61
2021/09/05 07:55:27;;;;;;;11.37;10.17;;;;;;;;;;5091190;28;20249;-61
2021/09/05 07:57:53;;;;;;;12.37;10.50;;;;;;;;;;5070436;28;20274;-61
2021/09/05 08:00:19;;;;;;;13.03;10.60;;;;;;;;;;5073787;28;20550;-64
2021/09/05 08:02:45;;;;;;;16.07;10.50;;;;;;;;;;5087193;28;20534;-63
2021/09/05 08:05:12;;;;;;;12.90;11.43;;;;;;;;;;5075118;28;20200;-61
2021/09/05 08:07:38;;;;;;;12.30;11.00;;;;;;;;;;5073075;28;20683;-62
2021/09/05 08:10:04;;;;;;;12.50;10.97;;;;;;;;;;5079101;28;20653;-61
2021/09/05 08:12:30;;;;;;;12.07;10.87;;;;;;;;;;5084802;28;20904;-63
2021/09/05 08:14:56;;;;;;;13.10;10.63;;;;;;;;;;5077668;28;20203;-62
2021/09/05 08:17:22;;;;;;;12.17;10.67;;;;;;;;;;5084197;28;20179;-62
2021/09/05 08:19:50;;;;;;;11.73;9.73;;;;;;;;;;5079275;28;20214;-62
2021/09/05 08:22:16;;;;;;;13.07;11.10;;;;;;;;;;5077081;28;20274;-58
2021/09/05 08:24:42;;;;;;;16.93;12.07;;;;;;;;;;5075858;28;20171;-58
2021/09/05 08:27:09;;;;;;;13.40;12.00;;;;;;;;;;5080780;28;20500;-57
2021/09/05 08:29:35;;;;;;;14.17;11.90;;;;;;;;;;5083214;28;20198;-58
2021/09/05 08:32:01;;;;;;;12.60;11.10;;;;;;;;;;5070643;28;20235;-59
2021/09/05 08:34:27;;;;;;;14.02;12.48;;;;;;;;;;5070762;28;20511;-58
2021/09/05 08:36:53;;;;;;;13.20;11.83;;;;;;;;;;5075136;28;20176;-58
2021/09/05 08:39:19;;;;;;;13.20;11.53;;;;;;;;;;5070913;28;20571;-57
2021/09/05 08:41:46;;;;;;;13.00;10.87;;;;;;;;;;5079019;28;20211;-59
2021/09/05 08:44:12;;;;;;;14.23;12.73;;;;;;;;;;5082451;28;20570;-59
2021/09/05 08:46:39;;;;;;;13.17;11.67;;;;;;;;;;5075499;28;20634;-57
2021/09/05 08:49:05;;;;;;;14.10;11.90;;;;;;;;;;5075588;28;20887;-58
2021/09/05 08:51:31;;;;;;;15.30;12.13;;;;;;;;;;5079246;28;20590;-61
2021/09/05 08:54:00;;;;;;;11.97;10.77;;;;;;;;;;5073482;28;20706;-58
2021/09/05 08:56:26;;;;;;;12.27;10.90;;;;;;;;;;5074353;28;20180;-60
2021/09/05 08:58:52;;;;;;;17.07;11.77;;;;;;;;;;5073888;28;20231;-58
2021/09/05 09:01:20;;;;;;;13.03;11.43;;;;;;;;;;5075416;28;20745;-58
2021/09/05 09:03:46;;;;;;;11.33;10.00;;;;;;;;;;5073258;28;20173;-57
2021/09/05 09:06:21;;;;;;;11.27;10.07;;;;;;;;;;5073618;28;20591;-57
2021/09/05 09:08:57;;;;;;;12.40;11.03;;;;;;;;;;5072605;28;20175;-58
2021/09/05 09:11:23;;;;;;;15.37;9.93;;;;;;;;;;5086782;28;20175;-57
2021/09/05 09:13:54;;;;;;;12.60;11.17;;;;;;;;;;5076371;28;20179;-58
2021/09/05 09:16:20;;;;;;;13.10;10.80;;;;;;;;;;5075458;28;20183;-58
2021/09/05 09:18:46;;;;;;;12.03;10.70;;;;;;;;;;5072256;28;20270;-58
2021/09/05 09:21:15;;;;;;;11.20;10.03;;;;;;;;;;5078508;28;20197;-58
2021/09/05 09:23:41;;;;;;;13.90;11.93;;;;;;;;;;5070994;28;20172;-58
2021/09/05 09:26:08;;;;;;;14.33;11.33;;;;;;;;;;5075822;28;20237;-58
2021/09/05 09:28:35;;;;;;;11.73;10.57;;;;;;;;;;5080501;28;20198;-57
2021/09/05 09:31:15;;;;;;;12.87;11.47;;;;;;;;;;5072935;28;20854;-58
2021/09/05 09:33:46;;;;;;;12.70;11.40;;;;;;;;;;5073462;28;20310;-57
2021/09/05 09:36:13;;;;;;;11.87;10.67;;;;;;;;;;5070402;28;20206;-58
2021/09/05 09:38:42;;;;;;;13.87;11.73;;;;;;;;;;5074983;28;20587;-58
2021/09/05 09:41:15;;;;;;;14.03;10.77;;;;;;;;;;5073803;28;20192;-58
2021/09/05 09:43:52;;;;;;;11.70;10.47;;;;;;;;;;5071255;28;20170;-58
2021/09/05 09:46:20;;;;;;;12.77;11.30;;;;;;;;;;5084642;28;20170;-58
2021/09/05 09:48:47;;;;;;;11.77;10.57;;;;;;;;;;5072961;28;20169;-58
2021/09/05 09:51:14;;;;;;;13.60;10.60;;;;;;;;;;5074116;28;20227;-58
2021/09/05 09:53:41;;;;;;;12.87;10.13;;;;;;;;;;5075186;28;20179;-59
2021/09/05 09:56:08;;;;;;;12.07;10.77;;;;;;;;;;5080907;28;20189;-59
2021/09/05 09:58:34;;;;;;;12.83;11.53;;;;;;;;;;5069287;28;20216;-58
2021/09/05 10:01:01;;;;;;;11.20;10.10;;;;;;;;;;5077751;28;20250;-58
2021/09/05 10:03:27;;;;;;;11.83;10.73;;;;;;;;;;5076459;28;20236;-58
2021/09/05 10:05:57;;;;;;;12.47;11.17;;;;;;;;;;5070351;28;20186;-58
2021/09/05 10:08:23;;;;;;;12.27;10.97;;;;;;;;;;5078826;28;20194;-58
2021/09/05 10:10:50;;;;;;;12.03;10.77;;;;;;;;;;5072003;28;20195;-57
2021/09/05 10:13:16;;;;;;;12.37;11.07;;;;;;;;;;5068027;28;20181;-57
2021/09/05 10:15:43;;;;;;;11.40;10.20;;;;;;;;;;5070230;28;20237;-59
2021/09/05 10:18:11;;;;;;;11.73;10.53;;;;;;;;;;5072687;28;20185;-58
2021/09/05 10:20:37;;;;;;;16.27;12.20;;;;;;;;;;5072554;28;20595;-59
2021/09/05 10:23:04;;;;;;;12.60;10.93;;;;;;;;;;5068604;28;20531;-59
2021/09/05 10:25:31;;;;;;;12.33;11.17;;;;;;;;;;5077305;28;20174;-58
2021/09/05 10:27:57;;;;;;;13.03;10.10;;;;;;;;;;5082021;28;20188;-58
2021/09/05 10:30:23;;;;;;;12.40;11.10;;;;;;;;;;5076132;28;20643;-59
2021/09/05 10:33:05;;;;;;;13.67;11.40;;;;;;;;;;5077174;28;20182;-58
2021/09/05 10:35:35;;;;;;;12.67;11.37;;;;;;;;;;5078351;28;20185;-58
2021/09/05 10:38:18;;;;;;;13.13;10.97;;;;;;;;;;5055233;28;20550;-59
2021/09/05 10:40:44;;;;;;;19.10;12.03;;;;;;;;;;5076942;28;20215;-60
2021/09/05 10:43:10;;;;;;;13.13;11.87;;;;;;;;;;5080323;28;20250;-60
2021/09/05 10:45:37;;;;;;;13.47;12.20;;;;;;;;;;5074228;28;20174;-58
2021/09/05 10:48:23;;;;;;;13.03;11.60;;;;;;;;;;5075196;28;20184;-59
2021/09/05 10:50:50;;;;;;;13.60;11.93;;;;;;;;;;5073250;28;20185;-60
2021/09/05 10:53:18;;;;;;;13.97;10.97;;;;;;;;;;5072590;28;20186;-61
2021/09/05 10:56:03;;;;;;;15.47;11.87;;;;;;;;;;5081206;28;20660;-58
2021/09/05 10:58:36;;;;;;;12.87;11.23;;;;;;;;;;5079449;28;20221;-58
2021/09/05 11:01:03;;;;;;;12.27;10.83;;;;;;;;;;5072573;28;20190;-59
2021/09/05 11:03:30;;;;;;;12.70;10.03;;;;;;;;;;5069838;28;20268;-59
2021/09/05 11:06:14;;;;;;;12.43;11.23;;;;;;;;;;5077371;28;20219;-58
2021/09/05 11:08:40;;;;;;;14.53;11.77;;;;;;;;;;5073484;28;20176;-58
2021/09/05 11:11:06;;;;;;;12.00;10.80;;;;;;;;;;5078011;28;20180;-59
2021/09/05 11:13:51;;;;;;;11.70;10.30;;;;;;;;;;5074212;28;20213;-59
2021/09/05 11:16:17;;;;;;;13.03;11.70;;;;;;;;;;5074413;28;20180;-58
2021/09/05 11:18:43;;;;;;;11.90;10.70;;;;;;;;;;5078042;28;20263;-61
2021/09/05 11:21:30;;;;;;;13.13;11.70;;;;;;;;;;5084953;28;20662;-61
2021/09/05 11:23:56;;;;;;;12.37;10.13;;;;;;;;;;5081363;28;20630;-58
2021/09/05 11:26:22;;;;;;;13.37;11.13;;;;;;;;;;5074865;28;20180;-58
2021/09/05 11:28:50;;;;;;;15.17;12.03;;;;;;;;;;5073646;28;20567;-59
2021/09/05 11:31:19;;;;;;;13.30;11.90;;;;;;;;;;5076486;28;20245;-59
2021/09/05 11:33:45;;;;;;;12.77;10.93;;;;;;;;;;5076894;28;20172;-59
2021/09/05 11:36:11;;;;;;;13.57;11.50;;;;;;;;;;5077927;28;20544;-60
2021/09/05 11:38:38;;;;;;;12.17;11.00;;;;;;;;;;5074643;28;20184;-59
2021/09/05 11:41:04;;;;;;;13.45;12.05;;;;;;;;;;5077834;28;20755;-60
2021/09/05 11:43:31;;;;;;;12.77;10.90;;;;;;;;;;5079547;28;20674;-58
2021/09/05 11:45:57;;;;;;;12.37;11.17;;;;;;;;;;5079935;28;20199;-59
2021/09/05 11:48:27;;;;;;;11.03;9.47;;;;;;;;;;5072854;28;20208;-58
2021/09/05 11:51:00;;;;;;;11.57;10.27;;;;;;;;;;5077967;28;20666;-59
2021/09/05 11:53:26;;;;;;;11.17;10.07;;;;;;;;;;5072104;28;20188;-59
2021/09/05 11:55:53;;;;;;;13.67;10.43;;;;;;;;;;5072262;28;20634;-59
2021/09/05 11:58:19;;;;;;;10.97;9.87;;;;;;;;;;5073547;28;20234;-61
2021/09/05 12:00:45;;;;;;;11.80;10.60;;;;;;;;;;5071253;28;20196;-60
2021/09/05 12:03:13;;;;;;;13.73;12.07;;;;;;;;;;5078781;28;20169;-60
2021/09/05 12:05:39;;;;;;;10.77;9.53;;;;;;;;;;5078707;28;20176;-60
2021/09/05 12:08:05;;;;;;;14.27;9.67;;;;;;;;;;5078312;28;20177;-64
2021/09/05 12:10:33;;;;;;;12.73;10.10;;;;;;;;;;5079075;28;20176;-61
2021/09/05 12:13:03;;;;;;;11.97;10.50;;;;;;;;;;5078911;28;20193;-61
2021/09/05 12:15:31;;;;;;;13.37;11.00;;;;;;;;;;5076342;28;20204;-60
2021/09/05 12:17:57;;;;;;;12.60;10.97;;;;;;;;;;5080000;28;20185;-60
2021/09/05 12:20:24;;;;;;;13.47;11.77;;;;;;;;;;5071935;28;20663;-60
2021/09/05 12:22:50;;;;;;;12.17;10.90;;;;;;;;;;5074606;28;20180;-62
2021/09/05 12:25:20;;;;;;;11.97;10.27;;;;;;;;;;5069402;28;20615;-61
2021/09/05 12:28:00;;;;;;;13.13;10.97;;;;;;;;;;5077247;28;20207;-61
2021/09/05 12:30:26;;;;;;;14.03;11.50;;;;;;;;;;5056420;28;20274;-61
2021/09/05 12:33:22;;;;;;;11.80;10.43;;;;;;;;;;5069909;28;20187;-61
2021/09/05 12:35:52;;;;;;;12.00;10.80;;;;;;;;;;5053960;28;20196;-61
2021/09/05 12:38:31;;;;;;;12.27;10.83;;;;;;;;;;5078154;28;20176;-60
2021/09/05 12:41:04;;;;;;;11.73;10.50;;;;;;;;;;5069987;28;20541;-60
2021/09/05 12:43:44;;;;;;;11.67;10.53;;;;;;;;;;5074049;28;20521;-60
2021/09/05 12:46:11;;;;;;;13.10;11.07;;;;;;;;;;5076386;28;20290;-60
2021/09/05 12:48:38;;;;;;;11.20;10.00;;;;;;;;;;5078129;28;20238;-62
2021/09/05 12:51:09;;;;;;;10.70;9.60;;;;;;;;;;5076927;28;20188;-63
2021/09/05 12:53:35;;;;;;;11.73;10.63;;;;;;;;;;5084709;28;20432;-62
2021/09/05 12:56:01;;;;;;;10.70;9.57;;;;;;;;;;5075763;28;20272;-62
2021/09/05 12:58:27;;;;;;;11.27;9.63;;;;;;;;;;5076756;28;20220;-67
2021/09/05 13:00:53;;;;;;;11.37;9.77;;;;;;;;;;5075734;28;20336;-72
2021/09/05 13:03:19;;;;;;;9.40;8.50;;;;;;;;;;5076265;28;20266;-70
2021/09/05 13:05:45;;;;;;;10.37;9.27;;;;;;;;;;5077098;28;20181;-70
2021/09/05 13:08:11;;;;;;;9.43;8.53;;;;;;;;;;5066811;28;20310;-63
2021/09/05 13:10:38;;;;;;;9.80;8.80;;;;;;;;;;5075550;28;20193;-64
2021/09/05 13:13:04;;;;;;;9.57;8.53;;;;;;;;;;5068715;28;20193;-64
2021/09/05 13:15:30;;;;;;;10.13;9.10;;;;;;;;;;5075742;28;20213;-63
2021/09/05 13:17:57;;;;;;;12.70;10.10;;;;;;;;;;5073030;28;20549;-64
2021/09/05 13:20:23;;;;;;;10.53;9.43;;;;;;;;;;5082226;28;20269;-64
2021/09/05 13:22:49;;;;;;;9.77;8.87;;;;;;;;;;5070838;28;20541;-62
2021/09/05 13:25:15;;;;;;;12.17;10.97;;;;;;;;;;5066234;28;20199;-62
2021/09/05 13:27:41;;;;;;;12.90;11.63;;;;;;;;;;5070099;28;20265;-64
2021/09/05 13:30:09;;;;;;;16.70;12.13;;;;;;;;;;5074131;28;20181;-62
2021/09/05 13:32:35;;;;;;;12.17;11.03;;;;;;;;;;5072332;28;20247;-62
2021/09/05 13:35:01;;;;;;;12.20;10.97;;;;;;;;;;5075369;28;20183;-64
2021/09/05 13:37:27;;;;;;;12.13;10.97;;;;;;;;;;5081261;28;20187;-61
2021/09/05 13:39:53;;;;;;;12.63;10.73;;;;;;;;;;5087771;28;20280;-64
2021/09/05 13:42:19;;;;;;;11.67;10.40;;;;;;;;;;5078452;28;20190;-64
2021/09/05 13:44:45;;;;;;;12.33;11.00;;;;;;;;;;5070038;28;20175;-63
2021/09/05 13:47:12;;;;;;;12.13;10.30;;;;;;;;;;5068027;28;20269;-65
2021/09/05 13:49:38;;;;;;;11.23;10.07;;;;;;;;;;5070948;28;20193;-63
2021/09/05 13:52:04;;;;;;;10.63;9.63;;;;;;;;;;5076936;28;20384;-62
2021/09/05 13:54:30;;;;;;;11.13;9.93;;;;;;;;;;5069083;28;20197;-62
2021/09/05 13:56:56;;;;;;;11.40;10.27;;;;;;;;;;5068330;28;20190;-62
2021/09/05 13:59:22;;;;;;;14.63;10.63;;;;;;;;;;5068730;28;20212;-63
2021/09/05 14:01:49;;;;;;;11.73;10.53;;;;;;;;;;5073825;28;20288;-62
2021/09/05 14:04:15;;;;;;;14.33;13.27;;;;;;;;;;5074383;28;20263;-63
2021/09/05 14:06:41;;;;;;;12.20;10.97;;;;;;;;;;5075460;28;20664;-63
2021/09/05 14:09:07;;;;;;;12.17;10.53;;;;;;;;;;5077705;28;20182;-63
2021/09/05 14:11:33;;;;;;;10.47;9.33;;;;;;;;;;5076415;28;20237;-63
2021/09/05 14:13:59;;;;;;;10.83;9.77;;;;;;;;;;5068790;28;20629;-62
2021/09/05 14:16:25;;;;;;;11.60;10.57;;;;;;;;;;5072415;28;20258;-63
2021/09/05 14:18:51;;;;;;;12.03;10.60;;;;;;;;;;5068277;28;20187;-62
2021/09/05 14:21:17;;;;;;;15.40;13.97;;;;;;;;;;5071695;28;20538;-64